M I D A S
Marine Information and Data Acquisition System
Tripno 2275 of the Zeeleeuw from 2012-03-22 07:52:03 to 2012-03-22 16:22:12
Back to CruiseResearch ActivitiesStationsMapUnderway DataData graphs

EquipmentUnitsComments
TimeDGPSUTC
LatitudeDGPSDM.mWGS84
LongitudeDGPSDM.mWGS84
SpeedMeteo Stationm/sRelative wind speed
DirectionMeteo StationdegRelative wind direction
TemperatureMeteo Stationdeg CelciusAir temperature
PressureMeteo StationPaAtmospheric pressure
HumidityMeteo Station%Relative humidity
Missing or incorrect values are displayed as -999
Metereological data collected by the RV Zeeleeuw from 2012-03-22 07:26:42 to 2012-03-22 16:43:41
Time Latitude Longitude Speed Direction Temperature Pressure Humidity
2012-03-22 07:27 51°13.635 2°56.018 -999 324 7.3 103080 50
2012-03-22 07:28 51°13.635 2°56.018 -999 324 7.3 103080 51
2012-03-22 07:29 51°13.635 2°56.017 -999 34 7.4 103070 51
2012-03-22 07:30 51°13.635 2°56.018 -999 318 7.4 103070 50
2012-03-22 07:31 51°13.636 2°56.016 -999 239 7.5 103070 50
2012-03-22 07:32 51°13.636 2°56.017 -999 34 7.5 103070 50
2012-03-22 07:33 51°13.635 2°56.018 -999 34 7.5 103070 50
2012-03-22 07:34 51°13.635 2°56.019 -999 245 7.6 103070 50
2012-03-22 07:35 51°13.635 2°56.018 -999 34 7.6 103070 50
2012-03-22 07:36 51°13.636 2°56.018 -999 34 7.7 103070 50
2012-03-22 07:37 51°13.637 2°56.019 -999 34 7.8 103070 50
2012-03-22 07:38 51°13.636 2°56.019 -999 317 7.8 103070 50
2012-03-22 07:39 51°13.636 2°56.021 -999 34 7.9 103070 50
2012-03-22 07:40 51°13.636 2°56.021 -999 316 7.9 103070 50
2012-03-22 07:41 51°13.636 2°56.021 -999 35 8 103070 50
2012-03-22 07:42 51°13.636 2°56.02 -999 323 8.1 103070 49
2012-03-22 07:43 51°13.637 2°56.02 -999 319 8.1 103070 49
2012-03-22 07:44 51°13.636 2°56.019 -999 318 8.2 103070 49
2012-03-22 07:45 51°13.637 2°56.019 -999 34 8.2 103070 49
2012-03-22 07:46 51°13.637 2°56.019 -999 324 8.3 103070 49
2012-03-22 07:47 51°13.637 2°56.019 -999 325 8.3 103060 49
2012-03-22 07:48 51°13.636 2°56.019 -999 34 8.3 103070 49
2012-03-22 07:49 51°13.636 2°56.018 -999 329 8.4 103070 49
2012-03-22 07:50 51°13.636 2°56.019 -999 338 8.4 103070 49
2012-03-22 07:51 51°13.635 2°56.019 -999 319 8.4 103070 49
2012-03-22 07:52 51°13.634 2°56.017 -999 350 8.5 103070 49
2012-03-22 07:53 51°13.644 2°55.95 -999 2 8.6 103070 49
2012-03-22 07:54 51°13.667 2°55.857 -999 322 8.7 103070 49
2012-03-22 07:55 51°13.707 2°55.77 -999 239 8.8 103070 49
2012-03-22 07:56 51°13.763 2°55.691 -999 258 8.9 103080 49
2012-03-22 07:57 51°13.83 2°55.63 -999 265 8.9 103070 48
2012-03-22 07:58 51°13.896 2°55.598 1.3 42 9.1 103080 49
2012-03-22 07:59 51°13.949 2°55.616 2.6 38 9.2 103080 48
2012-03-22 08:00 51°13.98 2°55.655 2.4 35 9 103080 47
2012-03-22 08:01 51°13.992 2°55.611 0.1 34 8.9 103080 47
2012-03-22 08:02 51°14.052 2°55.514 0.1 355 8.9 103080 48
2012-03-22 08:03 51°14.159 2°55.4 1.3 1 8.9 103080 47
2012-03-22 08:04 51°14.282 2°55.282 1.8 3 8.7 103080 48
2012-03-22 08:05 51°14.409 2°55.159 3.1 10 8.6 103070 48
2012-03-22 08:06 51°14.547 2°55.015 3 339 8.6 103080 48
2012-03-22 08:07 51°14.702 2°54.821 3 354 8.5 103070 49
2012-03-22 08:08 51°14.877 2°54.63 3.9 350 8.4 103070 49
2012-03-22 08:09 51°15.061 2°54.469 5.3 346 8.4 103070 50
2012-03-22 08:10 51°15.253 2°54.366 5 355 8.3 103070 49
2012-03-22 08:11 51°15.448 2°54.301 5.5 345 8.3 103070 49
2012-03-22 08:12 51°15.647 2°54.25 5.8 345 8.3 103070 50
2012-03-22 08:13 51°15.844 2°54.223 5.9 345 8.3 103080 51
2012-03-22 08:14 51°16.038 2°54.17 5.3 350 8.2 103070 51
2012-03-22 08:15 51°16.164 2°54.149 4.2 358 8.2 103070 51
2012-03-22 08:16 51°16.242 2°54.121 4.8 360 8.1 103070 51
2012-03-22 08:17 51°16.274 2°54.159 0.1 340 8.1 103070 51
2012-03-22 08:18 51°16.277 2°54.258 -999 337 8.2 103070 51
2012-03-22 08:19 51°16.269 2°54.353 -999 330 8.4 103070 51
2012-03-22 08:20 51°16.243 2°54.347 0.1 34 8.5 103070 51
2012-03-22 08:21 51°16.225 2°54.313 -999 245 8.6 103070 50
2012-03-22 08:22 51°16.207 2°54.276 -999 252 8.8 103070 50
2012-03-22 08:23 51°16.188 2°54.239 0.1 260 8.8 103070 50
2012-03-22 08:24 51°16.169 2°54.199 -999 263 8.9 103070 49
2012-03-22 08:25 51°16.15 2°54.16 -999 37 8.9 103070 49
2012-03-22 08:26 51°16.132 2°54.12 -999 35 8.9 103070 49
2012-03-22 08:27 51°16.114 2°54.079 -999 35 8.9 103070 49
2012-03-22 08:28 51°16.095 2°54.023 -999 35 8.8 103070 49
2012-03-22 08:29 51°16.101 2°53.939 -999 18 9 103070 50
2012-03-22 08:30 51°16.175 2°53.858 -999 1 8.9 103070 49
2012-03-22 08:31 51°16.291 2°53.71 -999 359 8.7 103070 49
2012-03-22 08:32 51°16.422 2°53.512 -999 356 8.6 103060 50
2012-03-22 08:33 51°16.556 2°53.314 -999 358 8.5 103060 50
2012-03-22 08:34 51°16.697 2°53.133 -999 358 8.4 103060 51
2012-03-22 08:35 51°16.856 2°52.952 -999 356 8.3 103060 51
2012-03-22 08:36 51°17.01 2°52.744 5 355 8.2 103060 52
2012-03-22 08:37 51°17.159 2°52.518 -999 353 8 103060 52
2012-03-22 08:38 51°17.31 2°52.293 -999 353 7.9 103050 53
2012-03-22 08:39 51°17.469 2°52.085 4.6 353 7.8 103050 53
2012-03-22 08:40 51°17.641 2°51.917 4.8 351 7.7 103050 53
2012-03-22 08:41 51°17.811 2°51.744 5.4 354 7.7 103050 54
2012-03-22 08:42 51°17.975 2°51.549 -999 351 7.6 103050 53
2012-03-22 08:43 51°18.152 2°51.384 -999 352 7.6 103050 54
2012-03-22 08:44 51°18.314 2°51.223 -999 360 7.6 103050 54
2012-03-22 08:45 51°18.416 2°51.079 -999 10 7.6 103060 54
2012-03-22 08:46 51°18.477 2°50.965 -999 1 7.6 103060 54
2012-03-22 08:47 51°18.517 2°51.011 -999 327 7.6 103060 54
2012-03-22 08:48 51°18.485 2°51.043 -999 244 7.8 103060 54
2012-03-22 08:49 51°18.468 2°51.013 -999 265 7.9 103070 54
2012-03-22 08:50 51°18.453 2°50.981 -999 36 8 103070 53
2012-03-22 08:51 51°18.437 2°50.95 -999 35 8.1 103070 53
2012-03-22 08:52 51°18.42 2°50.917 -999 35 8.1 103070 53
2012-03-22 08:53 51°18.402 2°50.883 -999 35 8.1 103080 53
2012-03-22 08:54 51°18.383 2°50.849 -999 35 8.1 103070 52
2012-03-22 08:55 51°18.359 2°50.812 -999 266 8.1 103070 52
2012-03-22 08:56 51°18.297 2°50.773 -999 250 8.1 103070 53
2012-03-22 08:57 51°18.211 2°50.816 -999 316 8.2 103070 53
2012-03-22 08:58 51°18.192 2°50.974 -999 333 8.3 103050 52
2012-03-22 08:59 51°18.229 2°51.204 -999 334 8.3 103060 52
2012-03-22 09:00 51°18.282 2°51.484 -999 333 8.3 103050 52
2012-03-22 09:01 51°18.335 2°51.773 -999 331 8.3 103050 52
2012-03-22 09:02 51°18.381 2°52.068 -999 332 8.2 103050 52
2012-03-22 09:03 51°18.432 2°52.362 -999 331 8.1 103050 53
2012-03-22 09:04 51°18.477 2°52.66 -999 331 8.1 103040 53
2012-03-22 09:05 51°18.528 2°52.958 -999 332 8.1 103040 53
2012-03-22 09:06 51°18.579 2°53.256 -999 331 8 103040 53
2012-03-22 09:07 51°18.624 2°53.558 -999 331 8 103040 53
2012-03-22 09:08 51°18.666 2°53.861 -999 331 8.1 103040 53
2012-03-22 09:09 51°18.704 2°54.164 -999 330 8.1 103040 53
2012-03-22 09:10 51°18.743 2°54.465 -999 331 8.1 103040 53
2012-03-22 09:11 51°18.781 2°54.765 -999 330 8.1 103040 53
2012-03-22 09:12 51°18.819 2°55.058 -999 330 8.1 103030 53
2012-03-22 09:13 51°18.858 2°55.349 -999 331 8.1 103040 53
2012-03-22 09:14 51°18.93 2°55.622 -999 334 8.2 103040 53
2012-03-22 09:15 51°18.997 2°55.903 -999 334 8.2 103040 53
2012-03-22 09:16 51°19.066 2°56.182 -999 332 8.3 103040 52
2012-03-22 09:17 51°19.124 2°56.465 -999 330 8.3 103030 52
2012-03-22 09:18 51°19.161 2°56.756 -999 331 8.1 103040 53
2012-03-22 09:19 51°19.223 2°57.03 -999 333 8 103040 54
2012-03-22 09:20 51°19.279 2°57.311 -999 333 7.9 103030 54
2012-03-22 09:21 51°19.358 2°57.576 -999 335 7.9 103040 54
2012-03-22 09:22 51°19.451 2°57.828 -999 335 7.8 103040 55
2012-03-22 09:23 51°19.544 2°58.083 -999 336 7.8 103030 55
2012-03-22 09:24 51°19.636 2°58.34 -999 333 7.8 103040 55
2012-03-22 09:25 51°19.732 2°58.596 -999 333 7.8 103040 55
2012-03-22 09:26 51°19.81 2°58.868 -999 332 7.8 103050 55
2012-03-22 09:27 51°19.869 2°59.156 -999 333 7.8 103040 55
2012-03-22 09:28 51°19.929 2°59.444 -999 329 7.8 103050 55
2012-03-22 09:29 51°19.976 2°59.74 -999 330 7.8 103040 55
2012-03-22 09:30 51°20.041 3°0.028 -999 331 7.9 103050 55
2012-03-22 09:31 51°20.108 3°0.314 -999 332 7.9 103050 55
2012-03-22 09:32 51°20.165 3°0.613 -999 330 7.9 103050 55
2012-03-22 09:33 51°20.217 3°0.903 -999 331 8 103050 55
2012-03-22 09:34 51°20.282 3°1.191 -999 330 8 103060 55
2012-03-22 09:35 51°20.336 3°1.486 -999 332 8 103050 55
2012-03-22 09:36 51°20.404 3°1.771 -999 334 8 103050 55
2012-03-22 09:37 51°20.506 3°2.031 -999 334 8 103050 55
2012-03-22 09:38 51°20.608 3°2.29 -999 337 8 103050 55
2012-03-22 09:39 51°20.713 3°2.549 -999 334 8.1 103050 55
2012-03-22 09:40 51°20.808 3°2.82 -999 334 8.1 103050 55
2012-03-22 09:41 51°20.902 3°3.093 -999 334 8.2 103050 55
2012-03-22 09:42 51°21 3°3.363 -999 334 8.2 103050 55
2012-03-22 09:43 51°21.089 3°3.642 -999 332 8.2 103050 55
2012-03-22 09:44 51°21.185 3°3.915 -999 334 8.2 103060 55
2012-03-22 09:45 51°21.284 3°4.19 -999 334 8.2 103050 55
2012-03-22 09:46 51°21.389 3°4.461 -999 336 8.2 103050 55
2012-03-22 09:47 51°21.508 3°4.711 -999 337 8.3 103040 55
2012-03-22 09:48 51°21.611 3°4.973 -999 333 8.3 103050 55
2012-03-22 09:49 51°21.703 3°5.249 -999 333 8.3 103040 55
2012-03-22 09:50 51°21.805 3°5.515 -999 332 8.3 103040 54
2012-03-22 09:51 51°21.876 3°5.808 -999 332 8.3 103040 54
2012-03-22 09:52 51°21.942 3°6.106 -999 329 8.3 103050 55
2012-03-22 09:53 51°21.971 3°6.421 -999 328 8.3 103040 55
2012-03-22 09:54 51°21.994 3°6.739 -999 329 8.4 103040 54
2012-03-22 09:55 51°22.029 3°7.053 -999 330 8.4 103040 54
2012-03-22 09:56 51°22.067 3°7.364 -999 329 8.4 103040 54
2012-03-22 09:57 51°22.099 3°7.676 -999 328 8.5 103040 54
2012-03-22 09:58 51°22.126 3°7.99 -999 328 8.5 103030 54
2012-03-22 09:59 51°22.152 3°8.307 -999 328 8.5 103030 54
2012-03-22 10:00 51°22.17 3°8.628 -999 332 8.6 103020 54
2012-03-22 10:01 51°22.263 3°8.91 -999 335 8.7 103040 54
2012-03-22 10:02 51°22.37 3°9.184 -999 333 8.7 103040 54
2012-03-22 10:03 51°22.467 3°9.475 -999 335 8.8 103040 54
2012-03-22 10:04 51°22.573 3°9.757 -999 334 8.8 103040 53
2012-03-22 10:05 51°22.655 3°10.064 -999 333 8.9 103040 53
2012-03-22 10:06 51°22.712 3°10.383 -999 328 8.9 103040 53
2012-03-22 10:07 51°22.725 3°10.716 -999 328 8.9 103030 53
2012-03-22 10:08 51°22.723 3°11.049 -999 327 9 103030 53
2012-03-22 10:09 51°22.741 3°11.382 -999 326 9.1 103030 52
2012-03-22 10:10 51°22.752 3°11.718 -999 326 9.1 103030 52
2012-03-22 10:11 51°22.727 3°12.053 -999 322 9.2 103020 52
2012-03-22 10:12 51°22.687 3°12.386 -999 323 9.2 103020 52
2012-03-22 10:13 51°22.647 3°12.723 -999 323 9.2 103020 52
2012-03-22 10:14 51°22.599 3°13 -999 321 9.2 103030 52
2012-03-22 10:15 51°22.59 3°13.152 -999 325 9.2 103040 52
2012-03-22 10:16 51°22.593 3°13.211 -999 334 9.3 103050 52
2012-03-22 10:17 51°22.589 3°13.221 -999 343 9.3 103050 52
2012-03-22 10:18 51°22.585 3°13.227 -999 344 9.3 103050 52
2012-03-22 10:19 51°22.579 3°13.232 -999 345 9.2 103040 52
2012-03-22 10:20 51°22.574 3°13.236 -999 347 9.1 103040 53
2012-03-22 10:21 51°22.595 3°13.259 -999 6 9.1 103040 53
2012-03-22 10:22 51°22.66 3°13.228 -999 358 9 103030 53
2012-03-22 10:23 51°22.817 3°13.213 -999 351 8.9 103020 53
2012-03-22 10:24 51°23.02 3°13.204 -999 350 8.9 103020 53
2012-03-22 10:25 51°23.215 3°13.201 -999 349 8.9 103020 53
2012-03-22 10:26 51°23.393 3°13.216 -999 344 8.9 103020 53
2012-03-22 10:27 51°23.565 3°13.33 -999 343 8.9 103020 53
2012-03-22 10:28 51°23.762 3°13.444 -999 344 8.9 103020 53
2012-03-22 10:29 51°23.967 3°13.515 -999 349 8.9 103020 53
2012-03-22 10:30 51°24.172 3°13.501 -999 358 8.9 103020 53
2012-03-22 10:31 51°24.331 3°13.326 4.3 6 8.9 103020 53
2012-03-22 10:32 51°24.428 3°13.043 1.7 2 8.9 103030 53
2012-03-22 10:33 51°24.533 3°12.761 3.9 7 8.9 103030 53
2012-03-22 10:34 51°24.551 3°12.446 0.1 5 8.8 103040 53
2012-03-22 10:35 51°24.584 3°12.129 -999 2 8.8 103040 53
2012-03-22 10:36 51°24.614 3°11.81 0.1 358 8.8 103040 53
2012-03-22 10:37 51°24.621 3°11.49 -999 1 8.8 103040 53
2012-03-22 10:38 51°24.634 3°11.172 0.1 360 8.8 103040 53
2012-03-22 10:39 51°24.644 3°10.854 -999 2 8.8 103040 53
2012-03-22 10:40 51°24.646 3°10.536 -999 358 8.7 103030 53
2012-03-22 10:41 51°24.673 3°10.221 1 9 8.7 103030 53
2012-03-22 10:42 51°24.696 3°9.905 0.1 2 8.8 103040 53
2012-03-22 10:43 51°24.723 3°9.59 1.8 4 8.7 103030 53
2012-03-22 10:44 51°24.748 3°9.276 -999 360 8.7 103030 54
2012-03-22 10:45 51°24.75 3°8.956 0.1 -999 8.7 103030 54
2012-03-22 10:46 51°24.76 3°8.637 0.1 4 8.7 103040 54
2012-03-22 10:47 51°24.826 3°8.341 3.5 2 8.6 103030 54
2012-03-22 10:48 51°24.899 3°8.052 2.9 2 8.6 103020 52
2012-03-22 10:49 51°24.977 3°7.779 -999 354 8.6 103030 54
2012-03-22 10:50 51°25.154 3°7.726 8.3 348 8.5 103010 54
2012-03-22 10:51 51°25.343 3°7.727 9.5 348 8.5 103010 54
2012-03-22 10:52 51°25.537 3°7.728 8.7 345 8.4 103010 54
2012-03-22 10:53 51°25.724 3°7.716 8.7 350 8.4 103010 54
2012-03-22 10:54 51°25.888 3°7.722 7.3 348 8.4 103020 54
2012-03-22 10:55 51°26.043 3°7.801 8.5 345 8.4 103020 54
2012-03-22 10:56 51°26.187 3°7.934 8 339 8.5 103020 53
2012-03-22 10:57 51°26.32 3°8.097 8.3 339 8.6 103020 54
2012-03-22 10:58 51°26.401 3°8.231 7.1 338 8.6 103020 53
2012-03-22 10:59 51°26.43 3°8.34 6 332 8.6 103030 54
2012-03-22 11:00 51°26.428 3°8.388 3.5 318 8.6 103030 53
2012-03-22 11:01 51°26.412 3°8.394 3.9 35 8.7 103030 53
2012-03-22 11:02 51°26.397 3°8.402 4.3 33 8.7 103030 53
2012-03-22 11:03 51°26.382 3°8.412 4.3 34 8.8 103030 53
2012-03-22 11:04 51°26.367 3°8.422 4.5 240 8.9 103020 52
2012-03-22 11:05 51°26.353 3°8.435 4.4 252 9 103020 53
2012-03-22 11:06 51°26.339 3°8.45 4.9 257 9.1 103020 53
2012-03-22 11:07 51°26.326 3°8.468 4.1 262 9.1 103020 51
2012-03-22 11:08 51°26.306 3°8.491 5.5 261 9 103020 52
2012-03-22 11:09 51°26.252 3°8.519 3.4 33 8.9 103020 52
2012-03-22 11:10 51°26.201 3°8.467 2.8 31 8.9 103020 53
2012-03-22 11:11 51°26.199 3°8.338 4.7 9 8.9 103010 51
2012-03-22 11:12 51°26.259 3°8.133 4.7 6 8.7 103010 51
2012-03-22 11:13 51°26.347 3°7.873 5.7 354 8.7 103000 53
2012-03-22 11:14 51°26.443 3°7.614 6.8 355 8.5 103000 52
2012-03-22 11:15 51°26.56 3°7.375 7.6 354 8.4 102990 53
2012-03-22 11:16 51°26.681 3°7.136 6.9 355 8.2 102990 54
2012-03-22 11:17 51°26.803 3°6.897 6.6 356 8.2 102990 54
2012-03-22 11:18 51°26.926 3°6.659 6.9 355 8.2 102990 54
2012-03-22 11:19 51°27.048 3°6.418 8 353 8.2 103000 54
2012-03-22 11:20 51°27.169 3°6.176 7 355 8.1 102990 54
2012-03-22 11:21 51°27.293 3°5.935 6.7 357 8 102990 54
2012-03-22 11:22 51°27.416 3°5.693 6.8 356 7.9 102990 55
2012-03-22 11:23 51°27.54 3°5.45 6.2 357 8 102990 55
2012-03-22 11:24 51°27.664 3°5.209 6.7 355 8 102990 55
2012-03-22 11:25 51°27.789 3°4.971 6.7 358 8.1 102990 55
2012-03-22 11:26 51°27.915 3°4.734 6.3 358 8.2 102980 55
2012-03-22 11:27 51°28.042 3°4.496 6.9 358 8.2 102990 54
2012-03-22 11:28 51°28.172 3°4.257 5.6 359 8.2 102980 54
2012-03-22 11:29 51°28.249 3°3.981 3.5 6 8.2 102980 54
2012-03-22 11:30 51°28.282 3°3.673 3.6 6 8.3 102980 55
2012-03-22 11:31 51°28.298 3°3.457 2.2 37 8.3 102990 55
2012-03-22 11:32 51°28.254 3°3.407 3.1 266 8.3 102990 55
2012-03-22 11:33 51°28.233 3°3.43 4.2 265 8.4 102990 54
2012-03-22 11:34 51°28.233 3°3.458 5.5 260 8.4 102990 54
2012-03-22 11:35 51°28.233 3°3.486 5.7 256 8.5 102990 54
2012-03-22 11:36 51°28.233 3°3.514 5.7 257 8.6 102990 54
2012-03-22 11:37 51°28.233 3°3.542 5.4 260 8.7 102990 54
2012-03-22 11:38 51°28.206 3°3.577 3.7 35 8.7 102980 53
2012-03-22 11:39 51°28.17 3°3.547 0.1 29 8.6 102980 52
2012-03-22 11:40 51°28.15 3°3.43 -999 33 8.7 102980 53
2012-03-22 11:41 51°28.122 3°3.206 1 1 8.6 102980 53
2012-03-22 11:42 51°28.089 3°2.929 0.3 3 8.4 102980 54
2012-03-22 11:43 51°28.054 3°2.631 1.2 355 8.3 102980 54
2012-03-22 11:44 51°28.017 3°2.327 1.4 353 8.2 102980 53
2012-03-22 11:45 51°27.983 3°2.021 1.4 360 8.1 102970 54
2012-03-22 11:46 51°27.948 3°1.717 1.4 359 8 102970 55
2012-03-22 11:47 51°27.917 3°1.413 1.3 2 8 102970 55
2012-03-22 11:48 51°27.885 3°1.109 1.7 9 7.9 102960 55
2012-03-22 11:49 51°27.852 3°0.805 1.4 6 7.9 102960 55
2012-03-22 11:50 51°27.822 3°0.498 1.4 5 7.9 102960 56
2012-03-22 11:51 51°27.791 3°0.189 1.2 8 7.9 102960 56
2012-03-22 11:52 51°27.76 2°59.879 0.4 6 7.8 102960 55
2012-03-22 11:53 51°27.729 2°59.568 1.5 7 7.8 102960 56
2012-03-22 11:54 51°27.696 2°59.259 2.3 11 7.8 102950 56
2012-03-22 11:55 51°27.663 2°58.95 1.9 13 7.8 102950 56
2012-03-22 11:56 51°27.63 2°58.643 2 12 7.8 102950 56
2012-03-22 11:57 51°27.598 2°58.337 1.8 7 7.8 102950 56
2012-03-22 11:58 51°27.567 2°58.03 1.8 10 7.8 102950 56
2012-03-22 11:59 51°27.528 2°57.725 0.2 -999 7.8 102950 56
2012-03-22 12:00 51°27.465 2°57.431 0.1 18 7.9 102960 55
2012-03-22 12:01 51°27.4 2°57.138 1.1 22 7.9 102950 56
2012-03-22 12:02 51°27.337 2°56.847 0.9 21 8 102950 56
2012-03-22 12:03 51°27.281 2°56.555 0.4 18 8 102950 57
2012-03-22 12:04 51°27.221 2°56.262 0.8 17 8 102950 56
2012-03-22 12:05 51°27.16 2°55.965 0.8 19 8.1 102950 56
2012-03-22 12:06 51°27.101 2°55.668 0.6 12 8.1 102940 56
2012-03-22 12:07 51°27.037 2°55.374 0.8 24 8.1 102940 56
2012-03-22 12:08 51°26.976 2°55.083 0.2 15 8.2 102950 55
2012-03-22 12:09 51°26.874 2°54.837 0.2 38 8.2 102940 56
2012-03-22 12:10 51°26.755 2°54.603 0.8 262 8.5 102940 57
2012-03-22 12:11 51°26.632 2°54.381 0.4 258 8.8 102940 57
2012-03-22 12:12 51°26.514 2°54.144 0.3 268 9.1 102940 56
2012-03-22 12:13 51°26.458 2°53.859 2.1 18 9.4 102940 55
2012-03-22 12:14 51°26.431 2°53.546 1.6 17 9.2 102940 53
2012-03-22 12:15 51°26.405 2°53.234 2.9 22 8.9 102940 54
2012-03-22 12:16 51°26.385 2°52.922 2.8 16 8.7 102930 53
2012-03-22 12:17 51°26.362 2°52.611 2.6 16 8.6 102930 54
2012-03-22 12:18 51°26.339 2°52.3 2.9 15 8.5 102930 54
2012-03-22 12:19 51°26.319 2°51.99 3 21 8.4 102930 54
2012-03-22 12:20 51°26.293 2°51.687 2.9 25 8.4 102930 54
2012-03-22 12:21 51°26.263 2°51.387 2.4 22 8.4 102930 55
2012-03-22 12:22 51°26.239 2°51.087 2.7 20 8.3 102920 55
2012-03-22 12:23 51°26.21 2°50.79 2.8 26 8.3 102920 55
2012-03-22 12:24 51°26.177 2°50.494 2.5 11 8.3 102920 54
2012-03-22 12:25 51°26.149 2°50.196 2.3 17 8.3 102920 55
2012-03-22 12:26 51°26.125 2°49.898 2.5 18 8.3 102920 55
2012-03-22 12:27 51°26.099 2°49.602 2.4 21 8.3 102910 55
2012-03-22 12:28 51°26.074 2°49.308 2.6 26 8.3 102920 55
2012-03-22 12:29 51°26.058 2°49.09 2.7 38 8.3 102920 55
2012-03-22 12:30 51°26.048 2°48.929 4.3 40 8.4 102920 55
2012-03-22 12:31 51°26.049 2°48.827 4.9 41 8.4 102920 54
2012-03-22 12:32 51°26.047 2°48.725 4.2 33 8.4 102920 54
2012-03-22 12:33 51°26.038 2°48.6 3.8 35 8.4 102910 54
2012-03-22 12:34 51°26.028 2°48.527 6.8 32 8.4 102910 55
2012-03-22 12:35 51°26.031 2°48.549 5.8 38 8.6 102910 54
2012-03-22 12:36 51°26.042 2°48.579 5.3 264 8.6 102910 55
2012-03-22 12:37 51°26.052 2°48.612 6.9 264 8.6 102910 54
2012-03-22 12:38 51°26.063 2°48.644 7.1 261 8.6 102910 54
2012-03-22 12:39 51°26.074 2°48.676 7.5 259 8.7 102910 54
2012-03-22 12:40 51°26.085 2°48.708 7.3 259 8.8 102910 53
2012-03-22 12:41 51°26.097 2°48.739 7.1 261 8.9 102910 54
2012-03-22 12:42 51°26.097 2°48.777 4.4 265 9 102900 53
2012-03-22 12:43 51°26.067 2°48.776 2.2 32 8.9 102910 53
2012-03-22 12:44 51°25.989 2°48.636 0.7 32 9 102900 55
2012-03-22 12:45 51°25.879 2°48.431 1.7 31 9.2 102900 54
2012-03-22 12:46 51°25.769 2°48.217 0.2 26 9.3 102890 53
2012-03-22 12:47 51°25.686 2°47.975 -999 43 9.3 102890 53
2012-03-22 12:48 51°25.605 2°47.731 1.5 32 9.3 102890 52
2012-03-22 12:49 51°25.519 2°47.489 0.4 37 9.3 102890 53
2012-03-22 12:50 51°25.433 2°47.246 2 31 9.3 102890 53
2012-03-22 12:51 51°25.347 2°47.001 1.8 33 9.3 102890 53
2012-03-22 12:52 51°25.258 2°46.76 1.7 32 9.2 102890 53
2012-03-22 12:53 51°25.17 2°46.518 1.8 33 9.2 102890 54
2012-03-22 12:54 51°25.085 2°46.272 1.4 34 9.2 102880 53
2012-03-22 12:55 51°24.999 2°46.025 0.3 36 9.2 102880 53
2012-03-22 12:56 51°24.914 2°45.778 1.3 30 9.2 102880 53
2012-03-22 12:57 51°24.828 2°45.529 -999 35 9.2 102880 53
2012-03-22 12:58 51°24.739 2°45.282 1.8 38 9.2 102880 53
2012-03-22 12:59 51°24.651 2°45.033 1.4 35 9.2 102880 54
2012-03-22 13:00 51°24.572 2°44.775 1.3 33 9.2 102880 54
2012-03-22 13:01 51°24.485 2°44.525 2.3 38 9.2 102870 54
2012-03-22 13:02 51°24.396 2°44.277 2.2 29 9.2 102870 54
2012-03-22 13:03 51°24.308 2°44.031 0.1 35 9.3 102870 54
2012-03-22 13:04 51°24.225 2°43.784 -999 35 9.3 102870 53
2012-03-22 13:05 51°24.143 2°43.542 2.4 33 9.2 102870 54
2012-03-22 13:06 51°24.065 2°43.295 2.1 31 9.2 102870 54
2012-03-22 13:07 51°24.001 2°43.042 2.7 26 9.2 102870 54
2012-03-22 13:08 51°23.96 2°42.767 3 29 9.2 102870 54
2012-03-22 13:09 51°23.916 2°42.495 2.4 32 9.1 102870 54
2012-03-22 13:10 51°23.871 2°42.221 3.2 35 9.1 102870 53
2012-03-22 13:11 51°23.828 2°41.946 2.6 34 9.1 102860 55
2012-03-22 13:12 51°23.784 2°41.668 2.7 27 9.1 102860 53
2012-03-22 13:13 51°23.741 2°41.388 2.8 32 9.1 102860 54
2012-03-22 13:14 51°23.696 2°41.109 2.2 25 9.1 102860 54
2012-03-22 13:15 51°23.651 2°40.829 2.2 34 9.1 102860 54
2012-03-22 13:16 51°23.601 2°40.551 1.8 29 9.1 102860 54
2012-03-22 13:17 51°23.54 2°40.28 1.3 36 9.1 102860 54
2012-03-22 13:18 51°23.464 2°40.021 -999 37 9.1 102850 54
2012-03-22 13:19 51°23.37 2°39.78 0.4 33 9.1 102850 55
2012-03-22 13:20 51°23.286 2°39.529 1 37 9.2 102860 54
2012-03-22 13:21 51°23.2 2°39.286 0.5 31 9.2 102850 54
2012-03-22 13:22 51°23.099 2°39.042 1.6 42 9.3 102850 55
2012-03-22 13:23 51°23.003 2°38.79 1.4 31 9.3 102850 54
2012-03-22 13:24 51°22.882 2°38.568 2.3 31 9.3 102850 54
2012-03-22 13:25 51°22.762 2°38.346 0.2 33 9.4 102850 55
2012-03-22 13:26 51°22.637 2°38.131 2 33 9.5 102850 55
2012-03-22 13:27 51°22.525 2°37.907 2.5 34 9.7 102840 54
2012-03-22 13:28 51°22.388 2°37.729 2.8 33 9.7 102840 53
2012-03-22 13:29 51°22.243 2°37.56 2.2 34 9.7 102840 53
2012-03-22 13:30 51°22.11 2°37.369 2.1 39 9.7 102840 53
2012-03-22 13:31 51°21.964 2°37.199 2 34 9.7 102840 52
2012-03-22 13:32 51°21.831 2°37.007 1.7 30 9.8 102830 53
2012-03-22 13:33 51°21.692 2°36.823 1.7 270 9.8 102830 53
2012-03-22 13:34 51°21.563 2°36.619 2.3 33 9.8 102830 52
2012-03-22 13:35 51°21.445 2°36.397 1.2 32 9.9 102830 53
2012-03-22 13:36 51°21.319 2°36.185 0.5 30 9.9 102830 52
2012-03-22 13:37 51°21.224 2°35.937 1.6 34 10 102830 52
2012-03-22 13:38 51°21.16 2°35.662 1.9 34 10 102830 51
2012-03-22 13:39 51°21.093 2°35.388 1.9 34 9.9 102830 51
2012-03-22 13:40 51°21.017 2°35.122 1.2 36 9.8 102830 52
2012-03-22 13:41 51°20.956 2°34.845 2.1 41 9.7 102830 52
2012-03-22 13:42 51°20.888 2°34.57 2.3 38 9.6 102830 52
2012-03-22 13:43 51°20.839 2°34.281 3.1 30 9.5 102830 52
2012-03-22 13:44 51°20.802 2°33.982 2.7 24 9.5 102820 52
2012-03-22 13:45 51°20.749 2°33.691 1.9 18 9.4 102820 53
2012-03-22 13:46 51°20.692 2°33.399 2.7 24 9.4 102820 53
2012-03-22 13:47 51°20.646 2°33.097 2.5 15 9.3 102820 54
2012-03-22 13:48 51°20.584 2°32.802 2.2 22 9.2 102820 54
2012-03-22 13:49 51°20.54 2°32.498 3.4 20 9.1 102820 53
2012-03-22 13:50 51°20.494 2°32.195 2.9 25 9 102820 54
2012-03-22 13:51 51°20.432 2°31.901 2.4 26 9.1 102820 55
2012-03-22 13:52 51°20.379 2°31.605 2.9 17 9.1 102820 53
2012-03-22 13:53 51°20.333 2°31.307 2.1 14 9.1 102820 54
2012-03-22 13:54 51°20.269 2°31.021 1.5 18 9 102820 54
2012-03-22 13:55 51°20.211 2°30.734 2.5 21 9 102820 55
2012-03-22 13:56 51°20.171 2°30.482 2.8 30 9 102820 54
2012-03-22 13:57 51°20.119 2°30.255 2.9 38 9 102820 54
2012-03-22 13:58 51°20.075 2°30.062 2.8 37 9.1 102820 54
2012-03-22 13:59 51°20.024 2°30.003 5.4 37 9.2 102820 54
2012-03-22 14:00 51°19.993 2°29.982 7.1 37 9.2 102810 54
2012-03-22 14:01 51°19.994 2°30.011 5.5 264 9.2 102800 54
2012-03-22 14:02 51°20.001 2°30.043 6.5 260 9.2 102810 54
2012-03-22 14:03 51°20.007 2°30.073 8.8 260 9.3 102810 54
2012-03-22 14:04 51°20.016 2°30.1 8.1 261 9.4 102810 54
2012-03-22 14:05 51°20.024 2°30.129 8.6 259 9.5 102800 54
2012-03-22 14:06 51°20.014 2°30.178 8.2 250 9.5 102800 53
2012-03-22 14:07 51°19.96 2°30.315 9.9 240 9.6 102790 52
2012-03-22 14:08 51°19.863 2°30.583 11.3 38 9.5 102780 52
2012-03-22 14:09 51°19.763 2°30.896 11.8 30 9.5 102770 53
2012-03-22 14:10 51°19.623 2°31.152 9 236 9.4 102770 53
2012-03-22 14:11 51°19.484 2°31.406 12.5 32 9.3 102770 53
2012-03-22 14:12 51°19.349 2°31.666 10 35 9.3 102770 53
2012-03-22 14:13 51°19.217 2°31.925 10.1 236 9.3 102770 53
2012-03-22 14:14 51°19.082 2°32.176 8.8 33 9.2 102770 54
2012-03-22 14:15 51°18.96 2°32.447 11.6 31 9.2 102770 54
2012-03-22 14:16 51°18.821 2°32.701 10.6 236 9.2 102760 53
2012-03-22 14:17 51°18.699 2°32.973 9.8 236 9.2 102760 53
2012-03-22 14:18 51°18.564 2°33.224 8.3 235 9.3 102770 53
2012-03-22 14:19 51°18.433 2°33.479 9.3 30 9.3 102770 53
2012-03-22 14:20 51°18.304 2°33.74 9.2 237 9.3 102760 54
2012-03-22 14:21 51°18.163 2°33.988 8.7 237 9.3 102760 53
2012-03-22 14:22 51°18.032 2°34.252 11.9 31 9.3 102760 53
2012-03-22 14:23 51°17.902 2°34.516 9 34 9.4 102760 53
2012-03-22 14:24 51°17.765 2°34.771 10.4 237 9.3 102760 52
2012-03-22 14:25 51°17.624 2°35.022 10.9 237 9.3 102760 53
2012-03-22 14:26 51°17.481 2°35.269 9.5 236 9.4 102760 53
2012-03-22 14:27 51°17.341 2°35.518 11.5 32 9.5 102760 53
2012-03-22 14:28 51°17.21 2°35.784 11.5 31 9.5 102750 53
2012-03-22 14:29 51°17.08 2°36.05 12.5 33 9.5 102760 53
2012-03-22 14:30 51°16.936 2°36.283 12 238 9.5 102760 52
2012-03-22 14:31 51°16.787 2°36.517 10 239 9.6 102750 53
2012-03-22 14:32 51°16.683 2°36.727 9.5 246 9.6 102750 51
2012-03-22 14:33 51°16.614 2°36.819 4.4 265 9.6 102770 53
2012-03-22 14:34 51°16.595 2°36.847 7.7 263 9.7 102770 53
2012-03-22 14:35 51°16.602 2°36.863 9.3 258 9.7 102770 53
2012-03-22 14:36 51°16.611 2°36.876 7.5 252 9.8 102760 53
2012-03-22 14:37 51°16.62 2°36.885 10 257 9.8 102760 52
2012-03-22 14:38 51°16.629 2°36.892 9 261 9.9 102760 53
2012-03-22 14:39 51°16.64 2°36.898 8.9 256 10 102760 52
2012-03-22 14:40 51°16.651 2°36.904 8.1 260 10 102760 51
2012-03-22 14:41 51°16.662 2°36.909 5.8 263 10 102760 52
2012-03-22 14:42 51°16.673 2°36.914 5.4 266 9.9 102760 52
2012-03-22 14:43 51°16.683 2°36.919 6.6 267 9.7 102760 51
2012-03-22 14:44 51°16.642 2°36.944 6.3 261 9.6 102760 52
2012-03-22 14:45 51°16.511 2°36.985 5.4 253 9.6 102750 52
2012-03-22 14:46 51°16.337 2°36.997 6.6 256 9.7 102760 52
2012-03-22 14:47 51°16.144 2°37.033 5.9 253 9.8 102750 53
2012-03-22 14:48 51°15.95 2°37.086 6.7 249 9.9 102750 51
2012-03-22 14:49 51°15.757 2°37.144 6.1 250 9.9 102750 51
2012-03-22 14:50 51°15.559 2°37.176 6 251 10 102750 51
2012-03-22 14:51 51°15.36 2°37.169 5.5 253 10 102750 52
2012-03-22 14:52 51°15.158 2°37.178 7.2 252 10.1 102750 52
2012-03-22 14:53 51°14.959 2°37.239 7.6 249 10.1 102740 51
2012-03-22 14:54 51°14.758 2°37.273 6.5 255 10.1 102740 51
2012-03-22 14:55 51°14.556 2°37.295 5.6 248 10.1 102740 51
2012-03-22 14:56 51°14.357 2°37.351 5.8 250 10.2 102730 49
2012-03-22 14:57 51°14.154 2°37.395 6 252 10.2 102730 50
2012-03-22 14:58 51°13.949 2°37.391 5.7 258 10.2 102730 51
2012-03-22 14:59 51°13.742 2°37.361 3.3 256 10.2 102730 51
2012-03-22 15:00 51°13.539 2°37.317 5.2 257 10.3 102730 51
2012-03-22 15:01 51°13.341 2°37.278 6.1 255 10.4 102730 50
2012-03-22 15:02 51°13.138 2°37.261 5.6 254 10.5 102720 50
2012-03-22 15:03 51°12.934 2°37.266 5.5 252 10.5 102720 50
2012-03-22 15:04 51°12.729 2°37.265 6.2 256 10.5 102710 49
2012-03-22 15:05 51°12.525 2°37.217 4.7 254 10.6 102720 50
2012-03-22 15:06 51°12.323 2°37.173 6.2 253 10.6 102720 50
2012-03-22 15:07 51°12.12 2°37.145 5.7 253 10.7 102710 49
2012-03-22 15:08 51°11.917 2°37.11 5.8 260 10.7 102710 49
2012-03-22 15:09 51°11.712 2°37.061 5.8 258 10.7 102710 50
2012-03-22 15:10 51°11.51 2°36.977 3.4 264 10.7 102710 49
2012-03-22 15:11 51°11.31 2°36.891 5.8 259 10.7 102700 49
2012-03-22 15:12 51°11.109 2°36.829 6.1 260 10.7 102700 49
2012-03-22 15:13 51°10.907 2°36.769 4.7 258 10.8 102700 50
2012-03-22 15:14 51°10.71 2°36.69 4.5 260 10.8 102700 49
2012-03-22 15:15 51°10.518 2°36.597 3.8 260 10.9 102700 50
2012-03-22 15:16 51°10.321 2°36.531 6 248 10.9 102700 50
2012-03-22 15:17 51°10.144 2°36.66 10.6 232 10.8 102680 49
2012-03-22 15:18 51°10.132 2°36.972 12.6 324 10.7 102660 50
2012-03-22 15:19 51°10.205 2°37.292 11.8 324 10.5 102670 50
2012-03-22 15:20 51°10.264 2°37.619 15 324 10.4 102660 50
2012-03-22 15:21 51°10.343 2°37.934 15.9 325 10.4 102660 51
2012-03-22 15:22 51°10.415 2°38.25 11.6 320 10.3 102660 51
2012-03-22 15:23 51°10.441 2°38.581 11.2 321 10.3 102660 51
2012-03-22 15:24 51°10.472 2°38.911 12.7 321 10.2 102660 51
2012-03-22 15:25 51°10.519 2°39.238 14.6 324 10.2 102660 52
2012-03-22 15:26 51°10.574 2°39.565 11.1 322 10.2 102660 52
2012-03-22 15:27 51°10.619 2°39.895 12.4 324 10.2 102660 51
2012-03-22 15:28 51°10.711 2°40.2 15.8 326 10.1 102670 51
2012-03-22 15:29 51°10.795 2°40.509 13.8 325 10.1 102660 52
2012-03-22 15:30 51°10.865 2°40.828 14.3 324 10.1 102660 51
2012-03-22 15:31 51°10.94 2°41.143 16.1 323 10.2 102670 51
2012-03-22 15:32 51°11.014 2°41.405 9.1 325 10.2 102670 52
2012-03-22 15:33 51°11.063 2°41.574 10.6 321 10.2 102670 52
2012-03-22 15:34 51°11.07 2°41.735 10.1 39 10.3 102660 51
2012-03-22 15:35 51°11.076 2°41.892 8.8 37 10.3 102660 51
2012-03-22 15:36 51°11.064 2°41.945 7.4 255 10.2 102670 49
2012-03-22 15:37 51°11.054 2°41.95 4.8 264 10.2 102680 51
2012-03-22 15:38 51°11.048 2°41.945 3.8 266 10.1 102680 51
2012-03-22 15:39 51°11.04 2°41.936 4.9 267 10 102680 52
2012-03-22 15:40 51°11.034 2°41.928 4.9 261 9.9 102680 51
2012-03-22 15:41 51°11.028 2°41.92 6.1 263 9.8 102680 52
2012-03-22 15:42 51°11.016 2°41.922 7.3 245 9.8 102690 51
2012-03-22 15:43 51°10.997 2°42.033 11.1 33 9.9 102670 51
2012-03-22 15:44 51°10.98 2°42.297 13.5 320 9.9 102660 51
2012-03-22 15:45 51°11.023 2°42.607 10.3 323 9.9 102660 52
2012-03-22 15:46 51°11.077 2°42.92 15.3 322 9.9 102660 52
2012-03-22 15:47 51°11.116 2°43.233 10.8 321 9.9 102650 52
2012-03-22 15:48 51°11.178 2°43.535 10.9 324 9.9 102660 52
2012-03-22 15:49 51°11.254 2°43.827 14.8 324 9.9 102660 52
2012-03-22 15:50 51°11.327 2°44.123 13 323 9.9 102660 51
2012-03-22 15:51 51°11.374 2°44.433 13.9 321 9.9 102660 51
2012-03-22 15:52 51°11.432 2°44.736 10.6 323 9.8 102660 51
2012-03-22 15:53 51°11.512 2°45.028 15.6 325 9.8 102670 52
2012-03-22 15:54 51°11.588 2°45.323 13.4 322 9.8 102670 52
2012-03-22 15:55 51°11.641 2°45.63 13.5 323 9.8 102660 53
2012-03-22 15:56 51°11.71 2°45.928 11.9 322 9.7 102660 52
2012-03-22 15:57 51°11.773 2°46.229 13.4 324 9.7 102660 52
2012-03-22 15:58 51°11.844 2°46.525 11.5 323 9.7 102660 52
2012-03-22 15:59 51°11.89 2°46.833 10.3 303 9.7 102660 52
2012-03-22 16:00 51°11.942 2°47.137 13.2 324 9.6 102660 52
2012-03-22 16:01 51°12.018 2°47.428 15.1 324 9.6 102660 53
2012-03-22 16:02 51°12.083 2°47.726 10.2 322 9.6 102660 53
2012-03-22 16:03 51°12.149 2°48.022 14 325 9.5 102660 52
2012-03-22 16:04 51°12.229 2°48.311 10 327 9.5 102660 53
2012-03-22 16:05 51°12.329 2°48.583 14.6 330 9.5 102670 53
2012-03-22 16:06 51°12.434 2°48.851 12.4 325 9.4 102670 53
2012-03-22 16:07 51°12.511 2°49.141 9.5 327 9.4 102670 53
2012-03-22 16:08 51°12.596 2°49.424 12.1 327 9.3 102670 53
2012-03-22 16:09 51°12.707 2°49.682 10.2 328 9.3 102670 54
2012-03-22 16:10 51°12.805 2°49.953 10.5 326 9.3 102670 54
2012-03-22 16:11 51°12.902 2°50.226 10.2 328 9.3 102660 53
2012-03-22 16:12 51°12.996 2°50.5 14.5 327 9.3 102660 54
2012-03-22 16:13 51°13.088 2°50.775 13.3 327 9.3 102670 53
2012-03-22 16:14 51°13.192 2°51.039 13 328 9.2 102670 53
2012-03-22 16:15 51°13.3 2°51.299 14 326 9.3 102660 53
2012-03-22 16:16 51°13.386 2°51.58 13.7 327 9.3 102670 53
2012-03-22 16:17 51°13.492 2°51.842 13.4 329 9.3 102670 54
2012-03-22 16:18 51°13.602 2°52.1 11.9 328 9.3 102670 54
2012-03-22 16:19 51°13.709 2°52.36 9.5 328 9.2 102670 54
2012-03-22 16:20 51°13.801 2°52.633 12.4 326 9.2 102670 54
2012-03-22 16:21 51°13.897 2°52.902 13.2 328 9.2 102670 53
2012-03-22 16:22 51°14 2°53.164 12.5 326 9.2 102670 53
2012-03-22 16:23 51°14.098 2°53.429 11.5 329 9.2 102670 54
2012-03-22 16:24 51°14.209 2°53.682 10.1 328 9.2 102670 52
2012-03-22 16:25 51°14.317 2°53.935 13.9 329 9.2 102670 53
2012-03-22 16:26 51°14.441 2°54.164 11.3 330 9.2 102670 53
2012-03-22 16:27 51°14.563 2°54.389 10.2 326 9.2 102670 54
2012-03-22 16:28 51°14.607 2°54.675 11.4 318 9.2 102660 54
2012-03-22 16:29 51°14.541 2°54.957 10.5 32 9.2 102670 54
2012-03-22 16:30 51°14.395 2°55.158 7.9 237 9.2 102680 54
2012-03-22 16:31 51°14.243 2°55.308 6.5 236 9.2 102690 54
2012-03-22 16:32 51°14.104 2°55.425 4.7 254 9.2 102690 53
2012-03-22 16:33 51°14.004 2°55.497 4.3 249 9.3 102700 55
2012-03-22 16:34 51°13.938 2°55.544 4.7 261 9.4 102700 55
2012-03-22 16:35 51°13.879 2°55.587 3.4 253 9.5 102700 54
2012-03-22 16:36 51°13.822 2°55.631 0.2 33 9.8 102690 53
2012-03-22 16:37 51°13.772 2°55.692 1.8 242 10 102690 54
2012-03-22 16:38 51°13.73 2°55.763 1.8 238 10.3 102690 53
2012-03-22 16:39 51°13.691 2°55.845 2.6 32 10.6 102690 53
2012-03-22 16:40 51°13.653 2°55.942 3.8 34 11 102690 50
2012-03-22 16:41 51°13.639 2°56.012 3.3 253 11.4 102690 49
2012-03-22 16:42 51°13.637 2°56.019 2.4 257 11.8 102690 47